Time;durP1;ratioP1;P1;durP2;ratioP2;P2;SDS_P1;SDS_P2;PMS_P1;PMS_P2;Temp;Humidity;BMP_temperature;BMP_pressure;BME280_temperature;BME280_humidity;BME280_pressure;Samples;Min_cycle;Max_cycle;Signal;HPM_P1;HPM_P2
2022/10/10 00:00:10;;;;;;;1999.90;999.90;;;;;;;;;;5102634;27;20403;-73
2022/10/10 00:02:39;;;;;;;1999.90;999.90;;;;;;;;;;5102252;27;20427;-73
2022/10/10 00:05:08;;;;;;;1999.90;999.90;;;;;;;;;;5112496;27;20414;-73
2022/10/10 00:07:35;;;;;;;1999.90;999.90;;;;;;;;;;5097481;27;20410;-74
2022/10/10 00:10:03;;;;;;;1999.90;999.90;;;;;;;;;;5103678;27;21392;-72
2022/10/10 00:12:31;;;;;;;1999.90;999.90;;;;;;;;;;5106253;27;20481;-73
2022/10/10 00:14:59;;;;;;;1999.90;999.90;;;;;;;;;;5108399;27;20410;-73
2022/10/10 00:17:26;;;;;;;1999.90;999.90;;;;;;;;;;5103990;27;20468;-74
2022/10/10 00:19:55;;;;;;;1999.90;999.90;;;;;;;;;;5099927;27;20504;-74
2022/10/10 00:22:23;;;;;;;1999.90;999.90;;;;;;;;;;5098012;27;20561;-72
2022/10/10 00:24:51;;;;;;;1999.90;999.90;;;;;;;;;;5102017;27;20395;-74
2022/10/10 00:27:19;;;;;;;1999.90;999.90;;;;;;;;;;5098239;27;20386;-73
2022/10/10 00:29:46;;;;;;;1999.90;999.90;;;;;;;;;;5097661;27;21349;-74
2022/10/10 00:32:15;;;;;;;1999.90;999.90;;;;;;;;;;5100509;27;20801;-72
2022/10/10 00:34:42;;;;;;;1999.90;999.90;;;;;;;;;;5098623;27;20501;-73
2022/10/10 00:37:11;;;;;;;1999.90;999.90;;;;;;;;;;5099762;27;21084;-72
2022/10/10 00:39:39;;;;;;;1999.90;999.90;;;;;;;;;;5098136;27;20453;-73
2022/10/10 00:42:07;;;;;;;1999.90;999.90;;;;;;;;;;5101298;27;20499;-73
2022/10/10 00:44:35;;;;;;;1999.90;999.90;;;;;;;;;;5103517;27;21661;-73
2022/10/10 00:47:02;;;;;;;1999.90;999.90;;;;;;;;;;5116543;27;20506;-73
2022/10/10 00:49:32;;;;;;;1999.90;999.90;;;;;;;;;;5102366;27;20483;-74
2022/10/10 00:52:00;;;;;;;1999.90;999.90;;;;;;;;;;5117890;27;20409;-73
2022/10/10 00:54:31;;;;;;;1999.90;999.90;;;;;;;;;;5100701;27;20453;-73
2022/10/10 00:57:01;;;;;;;1999.90;999.90;;;;;;;;;;5096897;27;22590;-75
2022/10/10 00:59:31;;;;;;;1999.90;999.90;;;;;;;;;;5097912;27;20379;-75
2022/10/10 01:01:59;;;;;;;1999.90;999.90;;;;;;;;;;5097341;27;20440;-74
2022/10/10 01:04:34;;;;;;;1999.90;999.90;;;;;;;;;;5089915;27;20440;-73
2022/10/10 01:07:03;;;;;;;1999.90;999.90;;;;;;;;;;5101776;27;20496;-74
2022/10/10 01:09:33;;;;;;;1999.90;999.90;;;;;;;;;;5101341;27;20414;-72
2022/10/10 01:12:04;;;;;;;1999.90;999.90;;;;;;;;;;5092150;27;20439;-73
2022/10/10 01:14:38;;;;;;;1999.90;999.90;;;;;;;;;;5097302;27;20405;-72
2022/10/10 01:17:09;;;;;;;1999.90;999.90;;;;;;;;;;5102360;27;20391;-72
2022/10/10 01:19:58;;;;;;;1999.90;999.90;;;;;;;;;;5103319;27;20429;-74
2022/10/10 01:22:29;;;;;;;1999.90;999.90;;;;;;;;;;5092838;27;20526;-73
2022/10/10 01:25:06;;;;;;;1999.90;999.90;;;;;;;;;;5098363;27;20860;-74
2022/10/10 01:27:35;;;;;;;1999.90;999.90;;;;;;;;;;5102452;27;20888;-73
2022/10/10 01:30:06;;;;;;;1999.90;999.90;;;;;;;;;;5107739;27;20881;-72
2022/10/10 01:32:37;;;;;;;1999.90;999.90;;;;;;;;;;5106227;27;20516;-74
2022/10/10 01:35:21;;;;;;;1999.90;999.90;;;;;;;;;;5095983;27;20923;-73
2022/10/10 01:37:53;;;;;;;1999.90;999.90;;;;;;;;;;5100131;27;20405;-73
2022/10/10 01:40:24;;;;;;;1999.90;999.90;;;;;;;;;;5115564;27;21016;-73
2022/10/10 01:42:54;;;;;;;1999.90;999.90;;;;;;;;;;5104700;27;21205;-73
2022/10/10 01:45:26;;;;;;;1999.90;999.90;;;;;;;;;;5103643;27;20408;-73
2022/10/10 01:47:55;;;;;;;1999.90;999.90;;;;;;;;;;5098359;27;20953;-72
2022/10/10 01:50:24;;;;;;;1999.90;999.90;;;;;;;;;;5101796;27;20377;-72
2022/10/10 01:52:56;;;;;;;1999.90;999.90;;;;;;;;;;5096691;27;20874;-72
2022/10/10 01:55:33;;;;;;;1999.90;999.90;;;;;;;;;;5099530;27;20497;-73
2022/10/10 01:58:09;;;;;;;1999.90;999.90;;;;;;;;;;5096640;27;20522;-74
2022/10/10 02:00:44;;;;;;;1999.90;999.90;;;;;;;;;;5096861;27;20387;-73
2022/10/10 02:03:13;;;;;;;1999.90;999.90;;;;;;;;;;5101656;27;20399;-73
2022/10/10 02:05:43;;;;;;;1999.90;999.90;;;;;;;;;;5102062;27;21172;-75
2022/10/10 02:08:13;;;;;;;1999.90;999.90;;;;;;;;;;5105499;27;20444;-74
2022/10/10 02:10:43;;;;;;;1999.90;999.90;;;;;;;;;;5102287;27;20411;-74
2022/10/10 02:13:12;;;;;;;1999.90;999.90;;;;;;;;;;5105303;27;20398;-73
2022/10/10 02:15:44;;;;;;;1999.90;999.90;;;;;;;;;;5101446;27;20412;-73
2022/10/10 02:18:13;;;;;;;1999.90;999.90;;;;;;;;;;5108187;27;20404;-73
2022/10/10 02:20:42;;;;;;;1999.90;999.90;;;;;;;;;;5095152;27;20391;-73
2022/10/10 02:23:11;;;;;;;1999.90;999.90;;;;;;;;;;5079100;27;20437;-72
2022/10/10 02:25:41;;;;;;;1999.90;999.90;;;;;;;;;;5097922;27;20458;-72
2022/10/10 02:28:10;;;;;;;1999.90;999.90;;;;;;;;;;5107473;27;20435;-74
2022/10/10 02:30:40;;;;;;;1999.90;999.90;;;;;;;;;;5089201;27;20491;-73
2022/10/10 02:33:09;;;;;;;1999.90;999.90;;;;;;;;;;5105395;27;20448;-75
2022/10/10 02:35:53;;;;;;;1999.90;999.90;;;;;;;;;;5106881;27;21273;-73
2022/10/10 02:38:36;;;;;;;1999.90;999.90;;;;;;;;;;5107471;27;20415;-72
2022/10/10 02:41:19;;;;;;;1999.90;999.90;;;;;;;;;;5104406;27;22530;-72
2022/10/10 02:43:48;;;;;;;1999.90;999.90;;;;;;;;;;5107630;27;20453;-72
2022/10/10 02:46:15;;;;;;;1999.90;999.90;;;;;;;;;;5109524;27;20379;-72
2022/10/10 02:48:44;;;;;;;1999.90;999.90;;;;;;;;;;5106170;27;20448;-72
2022/10/10 02:51:14;;;;;;;1999.90;999.90;;;;;;;;;;5103498;27;20394;-73
2022/10/10 02:53:42;;;;;;;1999.90;999.90;;;;;;;;;;5104330;27;20410;-72
2022/10/10 02:56:10;;;;;;;1999.90;999.90;;;;;;;;;;5105615;27;20407;-74
2022/10/10 02:58:38;;;;;;;1999.90;999.90;;;;;;;;;;5105316;27;20425;-74
2022/10/10 03:01:06;;;;;;;1999.90;999.90;;;;;;;;;;5104555;27;20423;-72
2022/10/10 03:03:33;;;;;;;1999.90;999.90;;;;;;;;;;5084426;27;20392;-73
2022/10/10 03:06:03;;;;;;;1999.90;999.90;;;;;;;;;;5102511;27;20491;-72
2022/10/10 03:08:31;;;;;;;1999.90;999.90;;;;;;;;;;5104225;27;20441;-74
2022/10/10 03:10:59;;;;;;;1999.90;999.90;;;;;;;;;;5101862;27;20418;-73
2022/10/10 03:13:27;;;;;;;1999.90;999.90;;;;;;;;;;5111784;27;20421;-72
2022/10/10 03:15:55;;;;;;;1999.90;999.90;;;;;;;;;;5084434;27;20431;-73
2022/10/10 03:18:23;;;;;;;1999.90;999.90;;;;;;;;;;5093350;27;20470;-73
2022/10/10 03:20:52;;;;;;;1999.90;999.90;;;;;;;;;;5100759;27;21431;-73
2022/10/10 03:23:21;;;;;;;1999.90;999.90;;;;;;;;;;5102892;27;20399;-74
2022/10/10 03:25:49;;;;;;;1999.90;999.90;;;;;;;;;;5101673;27;20889;-74
2022/10/10 03:28:16;;;;;;;1999.90;999.90;;;;;;;;;;5108561;27;20434;-73
2022/10/10 03:30:44;;;;;;;1999.90;999.90;;;;;;;;;;5103706;27;20398;-74
2022/10/10 03:33:12;;;;;;;1999.90;999.90;;;;;;;;;;5101804;27;20420;-73
2022/10/10 03:35:40;;;;;;;1999.90;999.90;;;;;;;;;;5105234;27;20440;-73
2022/10/10 03:38:08;;;;;;;1999.90;999.90;;;;;;;;;;5104555;27;21217;-73
2022/10/10 03:40:40;;;;;;;1999.90;999.90;;;;;;;;;;5090780;27;20410;-73
2022/10/10 03:43:08;;;;;;;1999.90;999.90;;;;;;;;;;5107005;27;21237;-73
2022/10/10 03:45:36;;;;;;;1999.90;999.90;;;;;;;;;;5103038;27;20411;-73
2022/10/10 03:48:04;;;;;;;1999.90;999.90;;;;;;;;;;5102699;27;20390;-72
2022/10/10 03:50:32;;;;;;;1999.90;999.90;;;;;;;;;;5104599;27;20399;-73
2022/10/10 03:53:00;;;;;;;1999.90;999.90;;;;;;;;;;5102452;27;20442;-73
2022/10/10 03:55:27;;;;;;;1999.90;999.90;;;;;;;;;;5100604;27;20427;-72
2022/10/10 03:57:56;;;;;;;1999.90;999.90;;;;;;;;;;5101292;27;20405;-71
2022/10/10 04:00:24;;;;;;;1999.90;999.90;;;;;;;;;;5105814;27;20848;-71
2022/10/10 04:02:52;;;;;;;1999.90;999.90;;;;;;;;;;5098839;27;20494;-72
2022/10/10 04:05:20;;;;;;;1999.90;999.90;;;;;;;;;;5119172;27;20418;-72
2022/10/10 04:07:48;;;;;;;1999.90;999.90;;;;;;;;;;5095601;27;20391;-72
2022/10/10 04:10:16;;;;;;;1999.90;999.90;;;;;;;;;;5103687;27;20378;-73
2022/10/10 04:12:44;;;;;;;1999.90;999.90;;;;;;;;;;5076579;27;20513;-69
2022/10/10 04:15:13;;;;;;;1999.90;999.90;;;;;;;;;;5085874;27;20417;-70
2022/10/10 04:17:41;;;;;;;1999.90;999.90;;;;;;;;;;5100150;27;20418;-69
2022/10/10 04:20:08;;;;;;;1999.90;999.90;;;;;;;;;;5095527;27;20412;-70
2022/10/10 04:22:36;;;;;;;1999.90;999.90;;;;;;;;;;5096215;27;20540;-69
2022/10/10 04:25:04;;;;;;;1999.90;999.90;;;;;;;;;;5100243;27;20402;-70
2022/10/10 04:27:32;;;;;;;1999.90;999.90;;;;;;;;;;5107664;27;20386;-71
2022/10/10 04:30:00;;;;;;;1999.90;999.90;;;;;;;;;;5100165;27;20474;-69
2022/10/10 04:32:29;;;;;;;1999.90;999.90;;;;;;;;;;5110786;27;20799;-70
2022/10/10 04:34:56;;;;;;;1999.90;999.90;;;;;;;;;;5094677;27;20411;-69
2022/10/10 04:37:24;;;;;;;1999.90;999.90;;;;;;;;;;5108851;27;20395;-70
2022/10/10 04:39:52;;;;;;;1999.90;999.90;;;;;;;;;;5101953;27;20526;-70
2022/10/10 04:42:19;;;;;;;1999.90;999.90;;;;;;;;;;5101418;27;20877;-70
2022/10/10 04:44:47;;;;;;;1999.90;999.90;;;;;;;;;;5093600;27;20541;-71
2022/10/10 04:47:15;;;;;;;1999.90;999.90;;;;;;;;;;5089810;27;20471;-70
2022/10/10 04:49:44;;;;;;;1999.90;999.90;;;;;;;;;;5100343;27;20420;-71
2022/10/10 04:52:12;;;;;;;1999.90;999.90;;;;;;;;;;5104410;27;20445;-72
2022/10/10 04:54:40;;;;;;;1999.90;999.90;;;;;;;;;;5107620;27;20576;-72
2022/10/10 04:57:07;;;;;;;1999.90;999.90;;;;;;;;;;5106216;27;20387;-71
2022/10/10 04:59:35;;;;;;;1999.90;999.90;;;;;;;;;;5104473;27;20392;-72
2022/10/10 05:02:03;;;;;;;1999.90;999.90;;;;;;;;;;5105851;27;20494;-72
2022/10/10 05:04:30;;;;;;;1999.90;999.90;;;;;;;;;;5088000;27;20478;-71
2022/10/10 05:06:59;;;;;;;1999.90;999.90;;;;;;;;;;5107002;27;20392;-71
2022/10/10 05:09:27;;;;;;;1999.90;999.90;;;;;;;;;;5122044;27;20403;-71
2022/10/10 05:11:55;;;;;;;1999.90;999.90;;;;;;;;;;5104672;27;20403;-70
2022/10/10 05:14:22;;;;;;;1999.90;999.90;;;;;;;;;;5097816;27;20505;-71
2022/10/10 05:16:50;;;;;;;1999.90;999.90;;;;;;;;;;5099409;27;20410;-71
2022/10/10 05:19:18;;;;;;;1999.90;999.90;;;;;;;;;;5100947;27;20912;-71
2022/10/10 05:21:45;;;;;;;1999.90;999.90;;;;;;;;;;5097521;27;20447;-70
2022/10/10 05:24:15;;;;;;;1999.90;999.90;;;;;;;;;;5100459;27;20994;-70
2022/10/10 05:26:42;;;;;;;1999.90;999.90;;;;;;;;;;5104369;27;20745;-70
2022/10/10 05:29:10;;;;;;;1999.90;999.90;;;;;;;;;;5085558;27;20403;-69
2022/10/10 05:31:38;;;;;;;1999.90;999.90;;;;;;;;;;5105256;27;20478;-70
2022/10/10 05:34:05;;;;;;;1999.90;999.90;;;;;;;;;;5105253;27;20393;-70
2022/10/10 05:36:33;;;;;;;1999.90;999.90;;;;;;;;;;5108625;27;20401;-70
2022/10/10 05:39:01;;;;;;;1999.90;999.90;;;;;;;;;;5107869;27;20494;-70
2022/10/10 05:41:30;;;;;;;1999.90;999.90;;;;;;;;;;5106929;27;20417;-71
2022/10/10 05:43:58;;;;;;;1999.90;999.90;;;;;;;;;;5101504;27;20395;-72
2022/10/10 05:46:26;;;;;;;1999.90;999.90;;;;;;;;;;5104240;27;20411;-69
2022/10/10 05:48:54;;;;;;;1999.90;999.90;;;;;;;;;;5108957;27;20395;-73
2022/10/10 05:51:21;;;;;;;1999.90;999.90;;;;;;;;;;5097414;27;20474;-72
2022/10/10 05:53:49;;;;;;;1999.90;999.90;;;;;;;;;;5090145;27;20463;-72
2022/10/10 05:56:17;;;;;;;1999.90;999.90;;;;;;;;;;5102047;27;20447;-71
2022/10/10 05:58:46;;;;;;;1999.90;999.90;;;;;;;;;;5101118;27;20406;-70
2022/10/10 06:01:14;;;;;;;1999.90;999.90;;;;;;;;;;5117475;27;20423;-72
2022/10/10 06:03:41;;;;;;;1999.90;999.90;;;;;;;;;;5105130;27;20533;-71
2022/10/10 06:06:09;;;;;;;1999.90;999.90;;;;;;;;;;5102251;27;20959;-71
2022/10/10 06:08:37;;;;;;;1999.90;999.90;;;;;;;;;;5105745;27;20413;-73
2022/10/10 06:11:06;;;;;;;1999.90;999.90;;;;;;;;;;5107154;27;20391;-72
2022/10/10 06:13:34;;;;;;;1999.90;999.90;;;;;;;;;;5110893;27;20411;-72
2022/10/10 06:16:03;;;;;;;1999.90;999.90;;;;;;;;;;5099190;27;20383;-71
2022/10/10 06:18:31;;;;;;;1999.90;999.90;;;;;;;;;;5106949;27;20448;-70
2022/10/10 06:21:01;;;;;;;1999.90;999.90;;;;;;;;;;5109247;27;20399;-72
2022/10/10 06:23:29;;;;;;;1999.90;999.90;;;;;;;;;;5105909;27;20894;-72
2022/10/10 06:25:56;;;;;;;1999.90;999.90;;;;;;;;;;5106258;27;20480;-71
2022/10/10 06:28:24;;;;;;;1999.90;999.90;;;;;;;;;;5106007;27;20421;-72
2022/10/10 06:30:52;;;;;;;1999.90;999.90;;;;;;;;;;5101415;27;20387;-72
2022/10/10 06:33:21;;;;;;;1999.90;999.90;;;;;;;;;;5105853;27;21304;-73
2022/10/10 06:35:49;;;;;;;1999.90;999.90;;;;;;;;;;5108816;27;20398;-72
2022/10/10 06:38:17;;;;;;;1999.90;999.90;;;;;;;;;;5107211;27;20395;-72
2022/10/10 06:40:44;;;;;;;1999.90;999.90;;;;;;;;;;5105671;27;20449;-71
2022/10/10 06:43:13;;;;;;;1999.90;999.90;;;;;;;;;;5107831;27;20395;-71
2022/10/10 06:45:41;;;;;;;1999.90;999.90;;;;;;;;;;5104637;27;20739;-71
2022/10/10 06:48:09;;;;;;;1999.90;999.90;;;;;;;;;;5095108;27;20417;-72
2022/10/10 06:50:38;;;;;;;1999.90;999.90;;;;;;;;;;5094196;27;20948;-72
2022/10/10 06:53:06;;;;;;;1999.90;999.90;;;;;;;;;;5084248;27;21032;-72
2022/10/10 06:55:34;;;;;;;1999.90;999.90;;;;;;;;;;5101904;27;20907;-70
2022/10/10 06:58:02;;;;;;;1999.90;999.90;;;;;;;;;;5101630;27;20399;-71
2022/10/10 07:00:29;;;;;;;1999.90;999.90;;;;;;;;;;5108075;27;20411;-70
2022/10/10 07:02:57;;;;;;;1999.90;999.90;;;;;;;;;;5102654;27;21468;-72
2022/10/10 07:05:25;;;;;;;1999.90;999.90;;;;;;;;;;5101775;27;20484;-73
2022/10/10 07:07:54;;;;;;;1999.90;999.90;;;;;;;;;;5103722;27;20859;-72
2022/10/10 07:10:22;;;;;;;1999.90;999.90;;;;;;;;;;5107806;27;20413;-72
2022/10/10 07:12:49;;;;;;;1999.90;999.90;;;;;;;;;;5104264;27;20478;-69
2022/10/10 07:15:17;;;;;;;1999.90;999.90;;;;;;;;;;5107682;27;20460;-72
2022/10/10 07:17:44;;;;;;;1999.90;999.90;;;;;;;;;;5098892;27;20411;-72
2022/10/10 07:20:19;;;;;;;1999.90;999.90;;;;;;;;;;5101458;27;20395;-71
2022/10/10 07:22:47;;;;;;;1999.90;999.90;;;;;;;;;;5106654;27;20450;-73
2022/10/10 07:25:17;;;;;;;1999.90;999.90;;;;;;;;;;5110668;27;20407;-72
2022/10/10 07:27:44;;;;;;;1999.90;999.90;;;;;;;;;;5104180;27;20415;-72
2022/10/10 07:30:12;;;;;;;1999.90;999.90;;;;;;;;;;5110625;27;20418;-73
2022/10/10 07:32:40;;;;;;;1999.90;999.90;;;;;;;;;;5110238;27;20460;-73
2022/10/10 07:35:08;;;;;;;1999.90;999.90;;;;;;;;;;5111629;27;20403;-72
2022/10/10 07:37:36;;;;;;;1999.90;999.90;;;;;;;;;;5125205;27;20441;-73
2022/10/10 07:40:04;;;;;;;1999.90;999.90;;;;;;;;;;5108462;27;20387;-72
2022/10/10 07:42:33;;;;;;;1999.90;999.90;;;;;;;;;;5106677;27;20952;-72
2022/10/10 07:45:01;;;;;;;1999.90;999.90;;;;;;;;;;5110490;27;20979;-71
2022/10/10 07:47:28;;;;;;;1999.90;999.90;;;;;;;;;;5108339;27;20471;-72
2022/10/10 07:49:56;;;;;;;1999.90;999.90;;;;;;;;;;5104536;27;20524;-72
2022/10/10 07:52:24;;;;;;;1999.90;999.90;;;;;;;;;;5101468;27;20449;-72
2022/10/10 07:54:52;;;;;;;1999.90;999.90;;;;;;;;;;5103716;27;20388;-72
2022/10/10 07:57:19;;;;;;;1999.90;999.90;;;;;;;;;;5092914;27;20471;-73
2022/10/10 07:59:49;;;;;;;1999.90;999.90;;;;;;;;;;5106598;27;20390;-73
2022/10/10 08:02:16;;;;;;;1999.90;999.90;;;;;;;;;;5106038;27;20450;-73
2022/10/10 08:04:44;;;;;;;1999.90;999.90;;;;;;;;;;5103171;27;20435;-73
2022/10/10 08:07:12;;;;;;;1999.90;999.90;;;;;;;;;;5112515;27;20387;-73
2022/10/10 08:09:39;;;;;;;1999.90;999.90;;;;;;;;;;5105244;27;20391;-73
2022/10/10 08:12:07;;;;;;;1999.90;999.90;;;;;;;;;;5107426;27;20558;-74
2022/10/10 08:14:35;;;;;;;1999.90;999.90;;;;;;;;;;5104636;27;20387;-73
2022/10/10 08:17:04;;;;;;;1999.90;999.90;;;;;;;;;;5106821;27;20394;-73
2022/10/10 08:19:32;;;;;;;1999.90;999.90;;;;;;;;;;5105425;27;20388;-71
2022/10/10 08:22:00;;;;;;;1999.90;999.90;;;;;;;;;;5092458;27;20416;-72
2022/10/10 08:24:27;;;;;;;1999.90;999.90;;;;;;;;;;5134381;27;20566;-71
2022/10/10 08:27:10;;;;;;;1999.90;999.90;;;;;;;;;;5106121;27;20393;-71
2022/10/10 08:29:38;;;;;;;1999.90;999.90;;;;;;;;;;5111207;27;21042;-72
2022/10/10 08:32:07;;;;;;;1999.90;999.90;;;;;;;;;;5105057;27;20526;-73
2022/10/10 08:34:35;;;;;;;1999.90;999.90;;;;;;;;;;5107097;27;20407;-72
2022/10/10 08:37:03;;;;;;;1999.90;999.90;;;;;;;;;;5087900;27;20225;-73
2022/10/10 08:39:31;;;;;;;1999.90;999.90;;;;;;;;;;5106140;27;20229;-71
2022/10/10 08:42:00;;;;;;;1999.90;999.90;;;;;;;;;;5102653;27;20497;-71
2022/10/10 08:44:29;;;;;;;1999.90;999.90;;;;;;;;;;5088831;27;20260;-72
2022/10/10 08:46:58;;;;;;;1999.90;999.90;;;;;;;;;;5109948;27;20262;-71
2022/10/10 08:49:32;;;;;;;1999.90;999.90;;;;;;;;;;5101521;27;20464;-72
2022/10/10 08:52:02;;;;;;;1999.90;999.90;;;;;;;;;;5100902;27;20522;-72
2022/10/10 08:54:32;;;;;;;1999.90;999.90;;;;;;;;;;5109981;27;20223;-72
2022/10/10 08:57:01;;;;;;;1999.90;999.90;;;;;;;;;;5103921;27;21040;-72
2022/10/10 08:59:31;;;;;;;1999.90;999.90;;;;;;;;;;5105161;27;20399;-73
2022/10/10 09:02:03;;;;;;;1999.90;999.90;;;;;;;;;;5104538;27;21671;-72
2022/10/10 09:04:51;;;;;;;1999.90;999.90;;;;;;;;;;5102943;27;20449;-72
2022/10/10 09:07:23;;;;;;;1999.90;999.90;;;;;;;;;;5101230;27;20256;-73
2022/10/10 09:09:55;;;;;;;1999.90;999.90;;;;;;;;;;5107315;27;20275;-73
2022/10/10 09:12:26;;;;;;;1999.90;999.90;;;;;;;;;;5108381;27;20227;-73
2022/10/10 09:14:57;;;;;;;1999.90;999.90;;;;;;;;;;5108193;27;20280;-73
2022/10/10 09:17:34;;;;;;;1999.90;999.90;;;;;;;;;;5105671;27;20295;-73
2022/10/10 09:20:10;;;;;;;1999.90;999.90;;;;;;;;;;5105720;27;20507;-72
2022/10/10 09:22:44;;;;;;;1999.90;999.90;;;;;;;;;;5105508;27;20518;-73
2022/10/10 09:25:15;;;;;;;1999.90;999.90;;;;;;;;;;5092771;27;20233;-72
2022/10/10 09:27:47;;;;;;;1999.90;999.90;;;;;;;;;;5104722;27;20238;-71
2022/10/10 09:30:19;;;;;;;1999.90;999.90;;;;;;;;;;5106186;27;21023;-72
2022/10/10 09:32:51;;;;;;;1999.90;999.90;;;;;;;;;;5106302;27;20222;-73
2022/10/10 09:35:26;;;;;;;1999.90;999.90;;;;;;;;;;5106743;27;20445;-73
2022/10/10 09:37:57;;;;;;;1999.90;999.90;;;;;;;;;;5104518;27;20931;-73
2022/10/10 09:40:34;;;;;;;1999.90;999.90;;;;;;;;;;5110946;27;20222;-74
2022/10/10 09:43:09;;;;;;;1999.90;999.90;;;;;;;;;;5108712;27;21222;-71
2022/10/10 09:45:39;;;;;;;1999.90;999.90;;;;;;;;;;5090646;27;20255;-73
2022/10/10 09:48:09;;;;;;;1999.90;999.90;;;;;;;;;;5108712;27;20244;-71
2022/10/10 09:50:39;;;;;;;1999.90;999.90;;;;;;;;;;5092231;27;20233;-72
2022/10/10 09:53:12;;;;;;;1999.90;999.90;;;;;;;;;;5091284;27;20230;-72
2022/10/10 09:55:40;;;;;;;1999.90;999.90;;;;;;;;;;5112739;27;20337;-72
2022/10/10 09:58:12;;;;;;;1999.90;999.90;;;;;;;;;;5112828;27;21071;-73
2022/10/10 10:00:40;;;;;;;1999.90;999.90;;;;;;;;;;5093487;27;20256;-72
2022/10/10 10:03:12;;;;;;;1999.90;999.90;;;;;;;;;;5111551;27;21195;-71
2022/10/10 10:05:43;;;;;;;1999.90;999.90;;;;;;;;;;5111932;27;20295;-71
2022/10/10 10:08:18;;;;;;;1999.90;999.90;;;;;;;;;;5114450;27;20238;-71
2022/10/10 10:10:46;;;;;;;1999.90;999.90;;;;;;;;;;5111755;27;20237;-71
2022/10/10 10:13:14;;;;;;;1999.90;999.90;;;;;;;;;;5100870;27;20231;-72
2022/10/10 10:15:47;;;;;;;1999.90;999.90;;;;;;;;;;5103509;27;20315;-73
2022/10/10 10:18:23;;;;;;;1999.90;999.90;;;;;;;;;;5122894;27;20233;-73
2022/10/10 10:21:11;;;;;;;1999.90;999.90;;;;;;;;;;5108135;27;20230;-73
2022/10/10 10:23:41;;;;;;;1999.90;999.90;;;;;;;;;;5109589;27;20316;-72
2022/10/10 10:26:16;;;;;;;1999.90;999.90;;;;;;;;;;5114151;27;20234;-72
2022/10/10 10:28:45;;;;;;;1999.90;999.90;;;;;;;;;;5116475;27;22014;-71
2022/10/10 10:31:18;;;;;;;1999.90;999.90;;;;;;;;;;5113674;27;20241;-72
2022/10/10 10:33:51;;;;;;;1999.90;999.90;;;;;;;;;;5111847;27;20241;-72
2022/10/10 10:36:25;;;;;;;1999.90;999.90;;;;;;;;;;5113399;27;20733;-73
2022/10/10 10:38:55;;;;;;;1999.90;999.90;;;;;;;;;;5094913;27;20391;-73
2022/10/10 10:41:27;;;;;;;1999.90;999.90;;;;;;;;;;5113372;27;20663;-73
2022/10/10 10:44:00;;;;;;;1999.90;999.90;;;;;;;;;;5107782;27;20407;-71
2022/10/10 10:46:36;;;;;;;1999.90;999.90;;;;;;;;;;5113030;27;20245;-72
2022/10/10 10:49:09;;;;;;;1999.90;999.90;;;;;;;;;;5114976;27;20254;-72
2022/10/10 10:51:54;;;;;;;1999.90;999.90;;;;;;;;;;5097617;27;20219;-73
2022/10/10 10:54:29;;;;;;;1999.90;999.90;;;;;;;;;;5108044;27;20266;-71
2022/10/10 10:56:59;;;;;;;1999.90;999.90;;;;;;;;;;5106802;27;20310;-72
2022/10/10 10:59:41;;;;;;;1999.90;999.90;;;;;;;;;;5109330;27;20226;-72
2022/10/10 11:02:34;;;;;;;1999.90;999.90;;;;;;;;;;5106533;27;20254;-72
2022/10/10 11:05:43;;;;;;;1999.90;999.90;;;;;;;;;;5115775;27;21482;-72
2022/10/10 11:08:18;;;;;;;1999.90;999.90;;;;;;;;;;5100748;27;20237;-73
2022/10/10 11:10:51;;;;;;;1999.90;999.90;;;;;;;;;;5105563;27;20326;-73
2022/10/10 11:13:21;;;;;;;1999.90;999.90;;;;;;;;;;5105300;27;20218;-74
2022/10/10 11:15:52;;;;;;;1999.90;999.90;;;;;;;;;;5107286;27;20268;-73
2022/10/10 11:18:36;;;;;;;1999.90;999.90;;;;;;;;;;5105131;27;20235;-72
2022/10/10 11:21:06;;;;;;;1999.90;999.90;;;;;;;;;;5105183;27;20228;-73
2022/10/10 11:23:37;;;;;;;1999.90;999.90;;;;;;;;;;5092277;27;20284;-73
2022/10/10 11:26:07;;;;;;;1999.90;999.90;;;;;;;;;;5107387;27;20290;-73
2022/10/10 11:28:38;;;;;;;1999.90;999.90;;;;;;;;;;5104202;27;20312;-74
2022/10/10 11:31:08;;;;;;;1999.90;999.90;;;;;;;;;;5104577;27;20270;-73
2022/10/10 11:33:38;;;;;;;1999.90;999.90;;;;;;;;;;5088341;27;20223;-73
2022/10/10 11:36:10;;;;;;;1999.90;999.90;;;;;;;;;;5105063;27;20308;-72
2022/10/10 11:38:50;;;;;;;1999.90;999.90;;;;;;;;;;5108347;27;20229;-72
2022/10/10 11:41:22;;;;;;;1999.90;999.90;;;;;;;;;;5136800;27;20226;-73
2022/10/10 11:43:52;;;;;;;1999.90;999.90;;;;;;;;;;5105572;27;20226;-72
2022/10/10 11:46:25;;;;;;;1999.90;999.90;;;;;;;;;;5111526;27;20317;-73
2022/10/10 11:48:56;;;;;;;1999.90;999.90;;;;;;;;;;5108408;27;20402;-72
2022/10/10 11:51:34;;;;;;;1999.90;999.90;;;;;;;;;;5105406;27;20226;-73
2022/10/10 11:54:09;;;;;;;1999.90;999.90;;;;;;;;;;5104121;27;20383;-74
2022/10/10 11:56:39;;;;;;;1999.90;999.90;;;;;;;;;;5106448;27;20531;-73
2022/10/10 11:59:32;;;;;;;1999.90;999.90;;;;;;;;;;5109779;27;20230;-72
2022/10/10 12:02:00;;;;;;;1999.90;999.90;;;;;;;;;;5105692;27;20435;-72
2022/10/10 12:04:34;;;;;;;1999.90;999.90;;;;;;;;;;5105396;27;22212;-75
2022/10/10 12:07:07;;;;;;;1999.90;999.90;;;;;;;;;;5110266;27;20459;-72
2022/10/10 12:09:41;;;;;;;1999.90;999.90;;;;;;;;;;5105322;27;20941;-73
2022/10/10 12:12:13;;;;;;;1999.90;999.90;;;;;;;;;;5107921;27;20394;-73
2022/10/10 12:14:43;;;;;;;1999.90;999.90;;;;;;;;;;5105053;27;20253;-74
2022/10/10 12:17:18;;;;;;;1999.90;999.90;;;;;;;;;;5130091;27;20252;-72
2022/10/10 12:19:47;;;;;;;1999.90;999.90;;;;;;;;;;5112163;27;20350;-73
2022/10/10 12:22:22;;;;;;;1999.90;999.90;;;;;;;;;;5108646;27;20337;-72
2022/10/10 12:25:08;;;;;;;1999.90;999.90;;;;;;;;;;5108187;27;20225;-72
2022/10/10 12:27:43;;;;;;;1999.90;999.90;;;;;;;;;;5109760;27;20253;-74
2022/10/10 12:30:23;;;;;;;1999.90;999.90;;;;;;;;;;5103690;27;20238;-72
2022/10/10 12:32:53;;;;;;;1999.90;999.90;;;;;;;;;;5085634;27;20418;-73
2022/10/10 12:35:40;;;;;;;1999.90;999.90;;;;;;;;;;5110533;27;20439;-73
2022/10/10 12:38:10;;;;;;;1999.90;999.90;;;;;;;;;;5102692;27;20468;-73
2022/10/10 12:40:53;;;;;;;1999.90;999.90;;;;;;;;;;5109280;27;20486;-74
2022/10/10 12:43:23;;;;;;;1999.90;999.90;;;;;;;;;;5102945;27;20227;-70
2022/10/10 12:46:07;;;;;;;1999.90;999.90;;;;;;;;;;5108776;27;21173;-73
2022/10/10 12:48:38;;;;;;;1999.90;999.90;;;;;;;;;;5108342;27;20241;-74
2022/10/10 12:51:06;;;;;;;1999.90;999.90;;;;;;;;;;5102284;27;20399;-73
2022/10/10 12:53:34;;;;;;;1999.90;999.90;;;;;;;;;;5077965;27;20616;-73
2022/10/10 12:56:02;;;;;;;1999.90;999.90;;;;;;;;;;5107511;27;20239;-74
2022/10/10 12:58:34;;;;;;;1999.90;999.90;;;;;;;;;;5109695;27;20405;-75
2022/10/10 13:01:03;;;;;;;1999.90;999.90;;;;;;;;;;5114039;27;20245;-74
2022/10/10 13:03:34;;;;;;;1999.90;999.90;;;;;;;;;;5114100;27;20421;-74
2022/10/10 13:06:04;;;;;;;1999.90;999.90;;;;;;;;;;5111916;27;21145;-75
2022/10/10 13:08:32;;;;;;;1999.90;999.90;;;;;;;;;;5109075;27;20395;-75
2022/10/10 13:11:05;;;;;;;1999.90;999.90;;;;;;;;;;5105000;27;20434;-76
2022/10/10 13:13:34;;;;;;;1999.90;999.90;;;;;;;;;;5106501;27;20395;-76
2022/10/10 13:16:07;;;;;;;1999.90;999.90;;;;;;;;;;5110321;27;20411;-75
2022/10/10 13:18:38;;;;;;;1999.90;999.90;;;;;;;;;;5126913;27;32364;-74
2022/10/10 13:21:07;;;;;;;1999.90;999.90;;;;;;;;;;5111889;27;20970;-74
2022/10/10 13:23:36;;;;;;;1999.90;999.90;;;;;;;;;;5127508;27;20413;-76
2022/10/10 13:26:04;;;;;;;1999.90;999.90;;;;;;;;;;5109807;27;20480;-74
2022/10/10 13:28:36;;;;;;;1999.90;999.90;;;;;;;;;;5105518;27;20234;-75
2022/10/10 13:31:04;;;;;;;1999.90;999.90;;;;;;;;;;5127409;27;21571;-73
2022/10/10 13:33:33;;;;;;;1999.90;999.90;;;;;;;;;;5125317;27;20230;-74
2022/10/10 13:36:06;;;;;;;1999.90;999.90;;;;;;;;;;5120311;27;20229;-76
2022/10/10 13:38:35;;;;;;;1999.90;999.90;;;;;;;;;;5126133;27;20303;-75
2022/10/10 13:41:03;;;;;;;1999.90;999.90;;;;;;;;;;5131159;27;20233;-74
2022/10/10 13:43:33;;;;;;;1999.90;999.90;;;;;;;;;;5111198;27;21144;-73
2022/10/10 13:46:03;;;;;;;1999.90;999.90;;;;;;;;;;5113612;27;20230;-76
2022/10/10 13:48:38;;;;;;;1999.90;999.90;;;;;;;;;;5114603;27;20418;-75
2022/10/10 13:51:06;;;;;;;1999.90;999.90;;;;;;;;;;5132476;27;20489;-75
2022/10/10 13:53:46;;;;;;;1999.90;999.90;;;;;;;;;;5129743;27;20233;-75
2022/10/10 13:56:15;;;;;;;1999.90;999.90;;;;;;;;;;5130123;27;20462;-75
2022/10/10 13:58:44;;;;;;;1999.90;999.90;;;;;;;;;;5126091;27;20397;-74